createdAt,value
2022-12-03T00:00:14.759Z,0
2022-12-03T00:01:13.459Z,0
2022-12-03T00:02:13.600Z,0
2022-12-03T00:03:13.332Z,0
2022-12-03T00:04:13.089Z,0
2022-12-03T00:05:13.820Z,0
2022-12-03T00:06:12.788Z,0
2022-12-03T00:07:12.679Z,0
2022-12-03T00:08:12.537Z,0
2022-12-03T00:09:12.747Z,0
2022-12-03T00:10:12.855Z,0
2022-12-03T00:11:12.590Z,0
2022-12-03T00:12:12.692Z,0
2022-12-03T00:13:12.727Z,0
2022-12-03T00:14:12.710Z,0
2022-12-03T00:15:12.890Z,0
2022-12-03T00:16:13.236Z,0
2022-12-03T00:17:13.663Z,0
2022-12-03T00:18:12.512Z,0
2022-12-03T00:19:13.459Z,0
2022-12-03T00:20:13.036Z,0
2022-12-03T00:21:13.430Z,0
2022-12-03T00:22:13.654Z,0.109
2022-12-03T00:23:12.910Z,0
2022-12-03T00:24:13.167Z,0
2022-12-03T00:25:13.827Z,0
2022-12-03T00:26:12.880Z,0
2022-12-03T00:27:12.735Z,0
2022-12-03T00:28:12.904Z,0
2022-12-03T00:29:13.043Z,0
2022-12-03T00:30:13.266Z,0
2022-12-03T00:31:12.591Z,0
2022-12-03T00:32:12.466Z,0
2022-12-03T00:33:12.553Z,0
2022-12-03T00:34:13.423Z,0
2022-12-03T00:35:13.608Z,0
2022-12-03T00:36:12.896Z,0
2022-12-03T00:37:12.779Z,0
2022-12-03T00:38:13.427Z,0
2022-12-03T00:39:13.296Z,0
2022-12-03T00:40:12.684Z,0
2022-12-03T00:41:12.758Z,0.109
2022-12-03T00:42:12.381Z,0
2022-12-03T00:43:12.521Z,0
2022-12-03T00:44:13.224Z,0
2022-12-03T00:45:12.526Z,0
2022-12-03T00:46:15.761Z,0
2022-12-03T00:47:12.910Z,0
2022-12-03T00:48:12.733Z,0
2022-12-03T00:49:12.596Z,0
2022-12-03T00:50:13.446Z,0
2022-12-03T00:51:13.210Z,0
2022-12-03T00:52:13.044Z,0.109
2022-12-03T00:53:13.170Z,0
2022-12-03T00:54:12.674Z,0
2022-12-03T00:55:12.448Z,0
2022-12-03T00:56:12.564Z,0
2022-12-03T00:57:13.168Z,0
2022-12-03T00:58:13.011Z,0
2022-12-03T00:59:13.013Z,0
2022-12-03T01:00:14.517Z,0
2022-12-03T01:01:14.518Z,0
2022-12-03T01:03:13.418Z,0
2022-12-03T01:04:12.779Z,0
2022-12-03T01:05:13.796Z,0
2022-12-03T01:06:12.801Z,0
2022-12-03T01:07:12.778Z,0
2022-12-03T01:08:12.731Z,0
2022-12-03T01:09:12.740Z,0
2022-12-03T01:10:13.054Z,0
2022-12-03T01:11:13.232Z,0
2022-12-03T01:12:13.518Z,0
2022-12-03T01:13:12.895Z,0
2022-12-03T01:14:13.213Z,0
2022-12-03T01:15:13.308Z,0
2022-12-03T01:16:12.828Z,0
2022-12-03T01:17:13.308Z,0
2022-12-03T01:18:12.271Z,0
2022-12-03T01:19:13.180Z,0
2022-12-03T01:20:13.194Z,0
2022-12-03T01:21:13.079Z,0
2022-12-03T01:22:13.226Z,0
2022-12-03T01:23:12.756Z,0
2022-12-03T01:24:13.146Z,0
2022-12-03T01:25:13.437Z,0
2022-12-03T01:26:13.394Z,0
2022-12-03T01:27:12.612Z,0
2022-12-03T01:28:12.738Z,0
2022-12-03T01:29:17.815Z,0
2022-12-03T01:30:12.850Z,0
2022-12-03T01:31:12.938Z,0
2022-12-03T01:32:13.021Z,0
2022-12-03T01:33:17.776Z,0
2022-12-03T01:34:12.485Z,0
2022-12-03T01:35:12.407Z,0
2022-12-03T01:36:12.678Z,0
2022-12-03T01:37:21.274Z,0
2022-12-03T01:38:13.185Z,0
2022-12-03T01:39:11.641Z,0
2022-12-03T01:40:12.754Z,0
2022-12-03T01:41:12.545Z,0
2022-12-03T01:42:12.797Z,0
2022-12-03T01:43:12.665Z,0
2022-12-03T01:44:12.692Z,0
2022-12-03T01:45:12.930Z,0
2022-12-03T01:46:13.333Z,0
2022-12-03T01:47:27.222Z,0
2022-12-03T01:48:13.030Z,0
2022-12-03T01:49:12.523Z,0
2022-12-03T01:50:13.542Z,0
2022-12-03T01:51:13.308Z,0
2022-12-03T01:52:13.220Z,0
2022-12-03T01:53:27.318Z,0
2022-12-03T01:54:12.029Z,0.109
2022-12-03T01:55:13.160Z,0
2022-12-03T01:56:12.868Z,0
2022-12-03T01:57:27.206Z,0
2022-12-03T01:58:12.572Z,0
2022-12-03T01:59:12.701Z,0
2022-12-03T02:00:13.352Z,0
2022-12-03T02:01:13.195Z,0
2022-12-03T02:02:12.295Z,0
2022-12-03T02:03:12.296Z,0
2022-12-03T02:04:13.109Z,0
2022-12-03T02:05:12.667Z,0
2022-12-03T02:06:12.448Z,0
2022-12-03T02:07:12.627Z,0
2022-12-03T02:08:12.744Z,0
2022-12-03T02:09:12.932Z,0
2022-12-03T02:10:13.223Z,0
2022-12-03T02:11:13.281Z,0
2022-12-03T02:12:13.419Z,0
2022-12-03T02:13:12.902Z,0
2022-12-03T02:14:12.855Z,0.109
2022-12-03T02:15:12.878Z,0
2022-12-03T02:16:13.238Z,0
2022-12-03T02:17:12.536Z,0
2022-12-03T02:18:12.618Z,0
2022-12-03T02:19:13.109Z,0
2022-12-03T02:20:13.475Z,0
2022-12-03T02:21:12.689Z,0
2022-12-03T02:22:12.774Z,0
2022-12-03T02:23:12.945Z,0
2022-12-03T02:24:13.762Z,0
2022-12-03T02:25:13.102Z,0
2022-12-03T02:26:12.348Z,0
2022-12-03T02:27:12.675Z,0
2022-12-03T02:28:12.463Z,0.109
2022-12-03T02:29:12.919Z,0
2022-12-03T02:30:13.439Z,0
2022-12-03T02:31:12.732Z,0
2022-12-03T02:32:12.482Z,0
2022-12-03T02:33:12.715Z,0
2022-12-03T02:34:12.977Z,0
2022-12-03T02:35:12.548Z,0
2022-12-03T02:36:13.297Z,0
2022-12-03T02:37:13.212Z,0
2022-12-03T02:38:13.221Z,0
2022-12-03T02:39:13.394Z,0
2022-12-03T02:40:12.533Z,0
2022-12-03T02:41:12.891Z,0
2022-12-03T02:42:12.881Z,0
2022-12-03T02:43:12.560Z,0
2022-12-03T02:44:12.766Z,0
2022-12-03T02:45:12.937Z,0
2022-12-03T02:46:13.314Z,0
2022-12-03T02:47:13.077Z,0
2022-12-03T02:48:13.010Z,0
2022-12-03T02:49:12.613Z,0
2022-12-03T02:50:13.117Z,0
2022-12-03T02:51:12.419Z,0.109
2022-12-03T02:52:13.239Z,0
2022-12-03T02:53:12.890Z,0
2022-12-03T02:54:12.668Z,0
2022-12-03T02:55:13.271Z,0
2022-12-03T02:56:12.852Z,0
2022-12-03T02:57:13.106Z,0
2022-12-03T02:58:13.791Z,0.109
2022-12-03T02:59:12.959Z,0
2022-12-03T03:00:13.993Z,0
2022-12-03T03:01:13.119Z,0
2022-12-03T03:02:13.859Z,0.109
2022-12-03T03:03:13.357Z,0
2022-12-03T03:04:12.603Z,0
2022-12-03T03:05:14.056Z,0
2022-12-03T03:06:12.997Z,0
2022-12-03T03:07:13.121Z,0
2022-12-03T03:08:12.454Z,0
2022-12-03T03:09:12.700Z,0
2022-12-03T03:10:12.371Z,0
2022-12-03T03:12:13.408Z,0
2022-12-03T03:13:12.788Z,0
2022-12-03T03:14:12.285Z,0
2022-12-03T03:15:13.642Z,0
2022-12-03T03:16:12.785Z,0
2022-12-03T03:17:13.515Z,0
2022-12-03T03:18:12.245Z,0
2022-12-03T03:19:12.854Z,0
2022-12-03T03:20:12.988Z,0
2022-12-03T03:21:12.977Z,0
2022-12-03T03:22:12.946Z,0
2022-12-03T03:23:12.941Z,0
2022-12-03T03:24:12.963Z,0
2022-12-03T03:25:12.927Z,0
2022-12-03T03:26:12.938Z,0
2022-12-03T03:27:13.068Z,0
2022-12-03T03:28:13.234Z,0
2022-12-03T03:29:13.477Z,0
2022-12-03T03:30:13.068Z,0
2022-12-03T03:31:13.458Z,0
2022-12-03T03:32:13.204Z,0
2022-12-03T03:33:13.348Z,0
2022-12-03T03:34:13.370Z,0
2022-12-03T03:35:13.315Z,0
2022-12-03T03:36:12.948Z,0
2022-12-03T03:37:12.836Z,0
2022-12-03T03:38:12.844Z,0
2022-12-03T03:39:13.921Z,0
2022-12-03T03:40:13.092Z,0
2022-12-03T03:41:13.287Z,0
2022-12-03T03:42:13.332Z,0
2022-12-03T03:43:12.922Z,0
2022-12-03T03:44:12.816Z,0
2022-12-03T03:45:13.472Z,0
2022-12-03T03:46:13.353Z,0
2022-12-03T03:47:12.723Z,0
2022-12-03T03:48:12.680Z,0
2022-12-03T03:49:13.919Z,0
2022-12-03T03:50:12.846Z,0
2022-12-03T03:51:13.103Z,0
2022-12-03T03:52:13.257Z,0
2022-12-03T03:53:12.930Z,0
2022-12-03T03:54:12.585Z,0
2022-12-03T03:55:14.101Z,0
2022-12-03T03:56:18.152Z,0
2022-12-03T03:57:12.788Z,0
2022-12-03T03:58:12.621Z,0
2022-12-03T03:59:12.253Z,0
2022-12-03T04:00:18.567Z,0
2022-12-03T04:01:13.203Z,0
2022-12-03T04:02:18.057Z,0
2022-12-03T04:03:13.150Z,0
2022-12-03T04:04:12.939Z,0
2022-12-03T04:05:13.174Z,0
2022-12-03T04:06:12.936Z,0
2022-12-03T04:07:13.549Z,0
2022-12-03T04:08:20.454Z,0
2022-12-03T04:09:12.518Z,0
2022-12-03T04:10:26.436Z,0
2022-12-03T04:11:13.204Z,0
2022-12-03T04:12:13.584Z,0
2022-12-03T04:13:12.342Z,0
2022-12-03T04:14:27.298Z,0
2022-12-03T04:15:12.952Z,0
2022-12-03T04:16:12.738Z,0
2022-12-03T04:17:12.946Z,0
2022-12-03T04:18:13.153Z,0
2022-12-03T04:19:13.091Z,0
2022-12-03T04:20:13.366Z,0
2022-12-03T04:21:12.991Z,0
2022-12-03T04:22:13.073Z,0
2022-12-03T04:23:13.014Z,0
2022-12-03T04:24:13.240Z,0
2022-12-03T04:25:13.469Z,0
2022-12-03T04:26:12.415Z,0
2022-12-03T04:27:13.426Z,0
2022-12-03T04:28:13.191Z,0
2022-12-03T04:29:13.294Z,0
2022-12-03T04:30:13.900Z,0
2022-12-03T04:31:13.311Z,0
2022-12-03T04:32:12.425Z,0
2022-12-03T04:33:13.279Z,0
2022-12-03T04:34:12.951Z,0
2022-12-03T04:35:13.334Z,0
2022-12-03T04:36:12.796Z,0
2022-12-03T04:37:12.593Z,0
2022-12-03T04:38:12.466Z,0
2022-12-03T04:39:13.719Z,0
2022-12-03T04:40:12.656Z,0
2022-12-03T04:41:12.470Z,0
2022-12-03T04:42:12.696Z,0
2022-12-03T04:43:13.073Z,0
2022-12-03T04:44:13.084Z,0
2022-12-03T04:45:13.348Z,0
2022-12-03T04:46:13.517Z,0
2022-12-03T04:47:13.553Z,0
2022-12-03T04:48:12.788Z,0
2022-12-03T04:49:13.262Z,0
2022-12-03T04:50:13.957Z,0
2022-12-03T04:51:12.903Z,0
2022-12-03T04:52:13.006Z,0
2022-12-03T04:53:13.130Z,0
2022-12-03T04:55:13.074Z,0
2022-12-03T04:56:12.655Z,0
2022-12-03T04:57:11.994Z,0
2022-12-03T04:58:12.612Z,0
2022-12-03T04:59:16.044Z,0
2022-12-03T05:00:13.549Z,0
2022-12-03T05:01:12.907Z,0
2022-12-03T05:02:13.321Z,0
2022-12-03T05:03:12.595Z,0
2022-12-03T05:04:13.265Z,0
2022-12-03T05:05:13.220Z,0
2022-12-03T05:06:13.312Z,0
2022-12-03T05:07:13.197Z,0.109
2022-12-03T05:08:13.520Z,0
2022-12-03T05:09:12.920Z,0
2022-12-03T05:10:13.357Z,0
2022-12-03T05:11:12.761Z,0
2022-12-03T05:12:12.633Z,0
2022-12-03T05:13:12.713Z,0
2022-12-03T05:14:12.102Z,0
2022-12-03T05:15:12.945Z,0
2022-12-03T05:16:12.553Z,0
2022-12-03T05:17:12.256Z,0
2022-12-03T05:18:13.051Z,0
2022-12-03T05:19:12.658Z,0
2022-12-03T05:20:12.195Z,0
2022-12-03T05:21:12.846Z,0
2022-12-03T05:22:12.163Z,0
2022-12-03T05:23:13.224Z,0
2022-12-03T05:24:12.477Z,0
2022-12-03T05:25:12.264Z,0
2022-12-03T05:26:12.903Z,0
2022-12-03T05:27:12.588Z,0
2022-12-03T05:28:11.814Z,0
2022-12-03T05:29:12.902Z,0
2022-12-03T05:30:12.727Z,0
2022-12-03T05:31:12.312Z,0
2022-12-03T05:32:13.027Z,0
2022-12-03T05:33:12.704Z,0
2022-12-03T05:34:12.111Z,0
2022-12-03T05:35:12.922Z,0
2022-12-03T05:36:12.495Z,0
2022-12-03T05:37:13.101Z,0
2022-12-03T05:38:12.828Z,0
2022-12-03T05:39:12.712Z,0
2022-12-03T05:40:12.820Z,0
2022-12-03T05:41:12.376Z,0
2022-12-03T05:42:12.867Z,0
2022-12-03T05:43:12.526Z,0
2022-12-03T05:44:17.391Z,0
2022-12-03T05:45:13.065Z,0
2022-12-03T05:46:12.816Z,0
2022-12-03T05:47:13.262Z,0
2022-12-03T05:48:13.516Z,0
2022-12-03T05:49:12.813Z,0
2022-12-03T05:50:13.409Z,0
2022-12-03T05:51:13.725Z,0
2022-12-03T05:52:13.472Z,0
2022-12-03T05:53:13.034Z,0
2022-12-03T05:54:13.325Z,0
2022-12-03T05:55:13.525Z,0
2022-12-03T05:56:13.065Z,0
2022-12-03T05:57:12.422Z,0
2022-12-03T05:58:12.830Z,0
2022-12-03T05:59:12.902Z,0
2022-12-03T06:00:13.483Z,0
2022-12-03T06:01:12.673Z,0
2022-12-03T06:02:13.306Z,0
2022-12-03T06:03:12.714Z,0
2022-12-03T06:04:13.372Z,0
2022-12-03T06:05:12.519Z,0
2022-12-03T06:06:12.307Z,0
2022-12-03T06:07:14.260Z,0
2022-12-03T06:08:12.420Z,0
2022-12-03T06:09:12.966Z,0
2022-12-03T06:10:13.298Z,0
2022-12-03T06:11:12.670Z,0
2022-12-03T06:12:13.014Z,0
2022-12-03T06:13:13.172Z,0
2022-12-03T06:14:13.399Z,0
2022-12-03T06:15:12.826Z,0
2022-12-03T06:16:13.473Z,0
2022-12-03T06:17:17.671Z,0
2022-12-03T06:18:12.495Z,0
2022-12-03T06:19:13.066Z,0
2022-12-03T06:20:13.509Z,0
2022-12-03T06:21:17.983Z,0
2022-12-03T06:22:12.642Z,0
2022-12-03T06:23:13.359Z,0
2022-12-03T06:24:12.754Z,0
2022-12-03T06:25:13.275Z,0
2022-12-03T06:26:12.114Z,0
2022-12-03T06:27:13.345Z,0
2022-12-03T06:28:13.443Z,0
2022-12-03T06:29:12.886Z,13600
2022-12-03T06:30:14.053Z,13600
2022-12-03T06:31:20.338Z,0
2022-12-03T06:32:13.229Z,13600
2022-12-03T06:33:21.322Z,13600
2022-12-03T06:34:12.587Z,13600
2022-12-03T06:35:26.517Z,13600
2022-12-03T06:36:12.722Z,13600
2022-12-03T06:37:13.210Z,13600
2022-12-03T06:38:12.700Z,13600
2022-12-03T06:39:27.021Z,13600
2022-12-03T06:40:13.437Z,13600
2022-12-03T06:41:12.871Z,13600
2022-12-03T06:42:13.125Z,13600
2022-12-03T06:43:13.493Z,0
2022-12-03T06:44:12.382Z,0
2022-12-03T06:45:13.929Z,0
2022-12-03T06:46:13.148Z,0
2022-12-03T06:47:26.783Z,0.050
2022-12-03T06:48:13.280Z,0.680
2022-12-03T06:49:13.057Z,0.680
2022-12-03T06:50:13.197Z,0.519
2022-12-03T06:51:12.963Z,0.529
2022-12-03T06:52:13.210Z,1.360
2022-12-03T06:53:32.737Z,1.860
2022-12-03T06:54:12.944Z,2.329
2022-12-03T06:55:13.586Z,3.069
2022-12-03T06:56:12.946Z,3.329
2022-12-03T06:57:13.321Z,4.599
2022-12-03T06:58:12.937Z,5.460
2022-12-03T06:59:13.149Z,6.420
2022-12-03T07:00:14.130Z,7.280
2022-12-03T07:01:12.607Z,8.369
2022-12-03T07:02:13.279Z,9.630
2022-12-03T07:03:12.567Z,11.25
2022-12-03T07:04:12.933Z,13
2022-12-03T07:05:35.713Z,14.52
2022-12-03T07:06:13.682Z,15.98
2022-12-03T07:07:13.544Z,18.79
2022-12-03T07:08:13.391Z,22.29
2022-12-03T07:09:13.185Z,26.5
2022-12-03T07:10:13.027Z,31.70
2022-12-03T07:12:13.244Z,43.40
2022-12-03T07:13:27.512Z,49.90
2022-12-03T07:14:13.381Z,55
2022-12-03T07:15:12.949Z,58.40
2022-12-03T07:16:12.858Z,60.22
2022-12-03T07:17:13.267Z,63.5
2022-12-03T07:18:12.972Z,68.90
2022-12-03T07:19:13.967Z,78
2022-12-03T07:20:13.408Z,90
2022-12-03T07:22:12.853Z,117
2022-12-03T07:23:12.950Z,127.6
2022-12-03T07:24:13.339Z,133.6
2022-12-03T07:25:15.736Z,137.1
2022-12-03T07:26:13.283Z,141.3
2022-12-03T07:28:13.530Z,152.5
2022-12-03T07:29:12.954Z,156.5
2022-12-03T07:30:13.753Z,156.0
2022-12-03T07:32:13.321Z,162.3
2022-12-03T07:33:13.208Z,165.6
2022-12-03T07:34:12.922Z,167.1
2022-12-03T07:35:13.944Z,170.6
2022-12-03T07:36:13.561Z,175.8
2022-12-03T07:37:13.165Z,183.1
2022-12-03T07:38:12.847Z,192
2022-12-03T07:39:13.645Z,204
2022-12-03T07:40:13.049Z,220
2022-12-03T07:41:13.027Z,236
2022-12-03T07:42:13.151Z,253
2022-12-03T07:43:12.800Z,273
2022-12-03T07:44:14.795Z,295
2022-12-03T07:45:13.637Z,310
2022-12-03T07:46:13.208Z,317.8
2022-12-03T07:47:12.875Z,326
2022-12-03T07:48:13.318Z,337
2022-12-03T07:49:13.725Z,347
2022-12-03T07:50:13.508Z,357.2
2022-12-03T07:51:15.418Z,363.1
2022-12-03T07:52:13.130Z,364.7
2022-12-03T07:53:13.795Z,373
2022-12-03T07:54:13.255Z,384
2022-12-03T07:55:13.003Z,399
2022-12-03T07:56:13.457Z,421
2022-12-03T07:57:13.356Z,450
2022-12-03T07:58:12.534Z,490
2022-12-03T07:59:12.958Z,530
2022-12-03T08:00:13.909Z,580
2022-12-03T08:01:13.905Z,620
2022-12-03T08:02:19.517Z,680
2022-12-03T08:03:13.053Z,740
2022-12-03T08:04:13.766Z,776.7
2022-12-03T08:05:12.847Z,750
2022-12-03T08:06:13.431Z,680
2022-12-03T08:07:13.751Z,610
2022-12-03T08:08:13.228Z,570
2022-12-03T08:09:15.988Z,558.5
2022-12-03T08:10:14.217Z,564.2
2022-12-03T08:11:12.667Z,569.7
2022-12-03T08:12:13.520Z,570.7
2022-12-03T08:13:12.847Z,568.2
2022-12-03T08:14:13.675Z,569.4
2022-12-03T08:15:13.664Z,572.6
2022-12-03T08:16:13.333Z,572.5
2022-12-03T08:17:12.960Z,572.4
2022-12-03T08:18:13.514Z,573.9
2022-12-03T08:19:13.851Z,573.5
2022-12-03T08:20:13.257Z,572.6
2022-12-03T08:21:12.699Z,577.5
2022-12-03T08:22:13.390Z,590
2022-12-03T08:23:13.225Z,604
2022-12-03T08:24:13.644Z,620
2022-12-03T08:25:13.018Z,670
2022-12-03T08:26:13.063Z,704
2022-12-03T08:27:13.254Z,705
2022-12-03T08:28:13.203Z,688
2022-12-03T08:29:13.984Z,670
2022-12-03T08:30:13.937Z,659.7
2022-12-03T08:31:13.467Z,654
2022-12-03T08:32:13.507Z,664
2022-12-03T08:33:13.581Z,688
2022-12-03T08:34:13.069Z,720
2022-12-03T08:35:14.087Z,762
2022-12-03T08:36:13.827Z,773
2022-12-03T08:37:13.824Z,752
2022-12-03T08:38:13.767Z,720
2022-12-03T08:39:13.795Z,691
2022-12-03T08:40:13.787Z,691.5
2022-12-03T08:41:13.177Z,696.2
2022-12-03T08:42:17.515Z,699.4
2022-12-03T08:43:12.721Z,700.2
2022-12-03T08:44:18.316Z,699.0
2022-12-03T08:45:12.877Z,702
2022-12-03T08:46:18.392Z,730
2022-12-03T08:47:13.918Z,773
2022-12-03T08:48:18.810Z,777
2022-12-03T08:49:13.084Z,730
2022-12-03T08:50:18.207Z,680
2022-12-03T08:51:14.257Z,620
2022-12-03T08:52:13.358Z,570
2022-12-03T08:53:12.283Z,531
2022-12-03T08:54:21.790Z,522.9
2022-12-03T08:55:13.811Z,533
2022-12-03T08:56:13.432Z,551
2022-12-03T08:57:13.116Z,573
2022-12-03T08:58:21.110Z,587
2022-12-03T08:59:13.770Z,608
2022-12-03T09:00:22.878Z,634
2022-12-03T09:01:13.422Z,656
2022-12-03T09:02:26.995Z,680
2022-12-03T09:03:13.430Z,693.2
2022-12-03T09:04:13.351Z,692.4
2022-12-03T09:05:13.403Z,692
2022-12-03T09:06:27.247Z,660
2022-12-03T09:07:13.352Z,631
2022-12-03T09:08:13.112Z,600
2022-12-03T09:09:12.856Z,575
2022-12-03T09:10:13.268Z,562
2022-12-03T09:11:12.478Z,543
2022-12-03T09:12:13.352Z,541
2022-12-03T09:13:13.056Z,566
2022-12-03T09:14:18.359Z,590
2022-12-03T09:15:12.871Z,592.7
2022-12-03T09:16:12.721Z,579
2022-12-03T09:17:13.579Z,580
2022-12-03T09:18:13.667Z,600
2022-12-03T09:19:13.413Z,630
2022-12-03T09:20:13.433Z,655
2022-12-03T09:21:13.113Z,667.5
2022-12-03T09:22:13.060Z,665
2022-12-03T09:23:12.816Z,657.9
2022-12-03T09:24:13.707Z,663
2022-12-03T09:25:13.581Z,674
2022-12-03T09:26:13.627Z,683.7
2022-12-03T09:27:13.153Z,695
2022-12-03T09:28:12.816Z,709.7
2022-12-03T09:29:13.742Z,716.7
2022-12-03T09:30:35.888Z,726
2022-12-03T09:31:13.267Z,721
2022-12-03T09:32:18.127Z,697
2022-12-03T09:33:13.152Z,681.7
2022-12-03T09:34:13.866Z,672
2022-12-03T09:35:14.290Z,654
2022-12-03T09:36:13.197Z,631
2022-12-03T09:37:13.156Z,613
2022-12-03T09:39:13.119Z,555
2022-12-03T09:41:13.768Z,490
2022-12-03T09:43:13.379Z,487.9
2022-12-03T09:44:17.522Z,498
2022-12-03T09:45:14.121Z,520
2022-12-03T09:46:12.893Z,560
2022-12-03T09:47:12.819Z,588
2022-12-03T09:48:13.391Z,599.5
2022-12-03T09:49:16.072Z,600.2
2022-12-03T09:50:14.332Z,586
2022-12-03T09:51:12.633Z,590
2022-12-03T09:52:13.035Z,630
2022-12-03T09:53:12.690Z,669
2022-12-03T09:54:13.210Z,689
2022-12-03T09:55:13.037Z,701.2
2022-12-03T09:56:13.065Z,701.5
2022-12-03T09:57:13.817Z,697.9
2022-12-03T09:58:13.375Z,706
2022-12-03T09:59:13.348Z,740
2022-12-03T10:00:14.377Z,776
2022-12-03T10:01:13.629Z,796
2022-12-03T10:02:13.679Z,814
2022-12-03T10:03:13.444Z,832
2022-12-03T10:04:13.041Z,845.2
2022-12-03T10:05:12.983Z,842.2
2022-12-03T10:06:13.643Z,841.7
2022-12-03T10:07:13.317Z,852
2022-12-03T10:08:13.264Z,873
2022-12-03T10:09:13.820Z,898
2022-12-03T10:10:14.387Z,925
2022-12-03T10:11:12.931Z,955
2022-12-03T10:12:13.038Z,983
2022-12-03T10:13:13.721Z,1010
2022-12-03T10:14:13.022Z,1049
2022-12-03T10:15:14.342Z,1064.
2022-12-03T10:16:12.960Z,1056.
2022-12-03T10:17:14.048Z,1057.
2022-12-03T10:18:13.305Z,1066.
2022-12-03T10:19:13.193Z,1070.
2022-12-03T10:20:13.315Z,1069.
2022-12-03T10:21:13.756Z,1065
2022-12-03T10:22:13.489Z,1053.
2022-12-03T10:23:13.178Z,1047
2022-12-03T10:24:14.385Z,1038
2022-12-03T10:25:13.355Z,1022
2022-12-03T10:26:13.506Z,1009.
2022-12-03T10:27:13.727Z,1009
2022-12-03T10:28:13.667Z,1030
2022-12-03T10:29:13.043Z,1070
2022-12-03T10:30:13.179Z,1103
2022-12-03T10:31:13.341Z,1109
2022-12-03T10:32:13.514Z,1103
2022-12-03T10:33:17.234Z,1089
2022-12-03T10:34:13.352Z,1067
2022-12-03T10:35:13.809Z,1046
2022-12-03T10:36:13.859Z,1037.
2022-12-03T10:37:14.377Z,1040
2022-12-03T10:38:13.746Z,1055
2022-12-03T10:39:13.352Z,1080
2022-12-03T10:40:13.409Z,1140
2022-12-03T10:41:13.352Z,1190
2022-12-03T10:42:12.773Z,1230
2022-12-03T10:43:13.199Z,1280
2022-12-03T10:44:12.911Z,1350
2022-12-03T10:45:13.971Z,1430
2022-12-03T10:46:14.023Z,1510
2022-12-03T10:47:13.470Z,1542
2022-12-03T10:48:13.730Z,1547.
2022-12-03T10:49:13.622Z,1545
2022-12-03T10:50:13.336Z,1510
2022-12-03T10:51:13.165Z,1450
2022-12-03T10:52:13.539Z,1360
2022-12-03T10:53:13.058Z,1290
2022-12-03T10:54:13.793Z,1240
2022-12-03T10:55:13.903Z,1190
2022-12-03T10:56:13.799Z,1130
2022-12-03T10:57:14.138Z,1122
2022-12-03T10:58:12.647Z,1160
2022-12-03T10:59:13.709Z,1230
2022-12-03T11:00:14.836Z,1290
2022-12-03T11:01:13.335Z,1326
2022-12-03T11:02:13.402Z,1348
2022-12-03T11:03:13.301Z,1367.
2022-12-03T11:04:12.931Z,1361
2022-12-03T11:05:14.109Z,1338
2022-12-03T11:06:14.149Z,1320
2022-12-03T11:07:14.017Z,1315.
2022-12-03T11:08:12.619Z,1325
2022-12-03T11:09:13.610Z,1350
2022-12-03T11:10:13.433Z,1400
2022-12-03T11:11:13.894Z,1470
2022-12-03T11:12:13.544Z,1530
2022-12-03T11:13:18.079Z,1547
2022-12-03T11:14:18.065Z,1500
2022-12-03T11:15:14.205Z,1420
2022-12-03T11:16:13.729Z,1340
2022-12-03T11:17:13.513Z,1314
2022-12-03T11:18:13.139Z,1313.
2022-12-03T11:19:12.550Z,1324
2022-12-03T11:20:18.072Z,1343
2022-12-03T11:21:21.081Z,1380
2022-12-03T11:22:12.960Z,1430
2022-12-03T11:23:21.943Z,1480
2022-12-03T11:24:13.658Z,1520
2022-12-03T11:25:21.407Z,1552
2022-12-03T11:26:18.628Z,1557.
2022-12-03T11:27:27.760Z,1567
2022-12-03T11:28:12.890Z,1573
2022-12-03T11:29:27.498Z,1565.
2022-12-03T11:30:13.941Z,1580
2022-12-03T11:31:27.484Z,1570
2022-12-03T11:32:13.554Z,1535
2022-12-03T11:33:27.847Z,1523
2022-12-03T11:34:13.078Z,1520.
2022-12-03T11:35:28.003Z,1505
2022-12-03T11:36:13.261Z,1500
2022-12-03T11:37:14.141Z,1550
2022-12-03T11:38:12.923Z,1620
2022-12-03T11:39:31.745Z,1700
2022-12-03T11:40:13.971Z,1900
2022-12-03T11:41:13.663Z,2000
2022-12-03T11:42:14.180Z,2090
2022-12-03T11:43:32.676Z,2040
2022-12-03T11:44:13.028Z,1900
2022-12-03T11:45:14.073Z,1800
2022-12-03T11:46:12.598Z,1600
2022-12-03T11:47:32.628Z,1530
2022-12-03T11:48:13.038Z,1450
2022-12-03T11:49:13.771Z,1390
2022-12-03T11:50:13.674Z,1368
2022-12-03T11:51:12.960Z,1320
2022-12-03T11:52:13.317Z,1287
2022-12-03T11:53:12.608Z,1277
2022-12-03T11:54:13.150Z,1293
2022-12-03T11:55:14.114Z,1306.
2022-12-03T11:56:13.534Z,1313
2022-12-03T11:57:13.572Z,1340
2022-12-03T11:58:13.439Z,1390
2022-12-03T11:59:12.664Z,1460
2022-12-03T12:00:14.353Z,1520
2022-12-03T12:01:27.673Z,1520
2022-12-03T12:02:12.879Z,1450
2022-12-03T12:04:13.822Z,1200
2022-12-03T12:05:14.049Z,1090
2022-12-03T12:06:13.558Z,1039
2022-12-03T12:08:12.837Z,1032.
2022-12-03T12:09:13.706Z,1042
2022-12-03T12:10:13.794Z,1048.
2022-12-03T12:11:12.780Z,1056
2022-12-03T12:12:12.947Z,1078
2022-12-03T12:13:13.687Z,1120
2022-12-03T12:14:13.146Z,1200
2022-12-03T12:15:14.143Z,1300
2022-12-03T12:16:14.051Z,1430
2022-12-03T12:17:13.637Z,1490
2022-12-03T12:18:13.592Z,1504
2022-12-03T12:19:13.686Z,1470
2022-12-03T12:20:13.788Z,1430
2022-12-03T12:21:13.465Z,1402
2022-12-03T12:22:13.576Z,1404
2022-12-03T12:24:13.368Z,1490
2022-12-03T12:25:13.558Z,1570
2022-12-03T12:26:13.531Z,1670
2022-12-03T12:27:13.178Z,1740
2022-12-03T12:28:13.374Z,1800
2022-12-03T12:29:13.113Z,1880
2022-12-03T12:30:13.817Z,1955
2022-12-03T12:31:13.090Z,1900
2022-12-03T12:32:13.860Z,1700
2022-12-03T12:33:14.143Z,1570
2022-12-03T12:34:12.804Z,1510
2022-12-03T12:35:13.679Z,1480
2022-12-03T12:36:13.472Z,1461
2022-12-03T12:37:12.723Z,1420
2022-12-03T12:38:13.625Z,1360
2022-12-03T12:39:13.371Z,1324
2022-12-03T12:40:13.331Z,1317.
2022-12-03T12:41:13.262Z,1318.
2022-12-03T12:42:13.369Z,1340
2022-12-03T12:43:16.499Z,1410
2022-12-03T12:44:13.382Z,1490
2022-12-03T12:45:13.661Z,1534
2022-12-03T12:46:31.473Z,1500
2022-12-03T12:47:12.725Z,1400
2022-12-03T12:48:13.049Z,1310
2022-12-03T12:49:12.807Z,1240
2022-12-03T12:50:13.776Z,1140
2022-12-03T12:51:13.403Z,1060
2022-12-03T12:52:13.100Z,1016
2022-12-03T12:53:13.073Z,1020
2022-12-03T12:54:12.775Z,1080
2022-12-03T12:55:13.586Z,1160
2022-12-03T12:56:13.440Z,1195
2022-12-03T12:57:13.266Z,1207
2022-12-03T12:58:12.734Z,1240
2022-12-03T12:59:13.561Z,1330
2022-12-03T13:00:14.355Z,1400
2022-12-03T13:01:13.001Z,1447
2022-12-03T13:02:12.828Z,1439
2022-12-03T13:03:12.792Z,1421
2022-12-03T13:04:13.104Z,1414.
2022-12-03T13:05:13.394Z,1413
2022-12-03T13:06:13.503Z,1420
2022-12-03T13:07:13.534Z,1470
2022-12-03T13:08:13.137Z,1530
2022-12-03T13:09:12.881Z,1510
2022-12-03T13:10:13.459Z,1400
2022-12-03T13:11:12.276Z,1330
2022-12-03T13:12:13.932Z,1299
2022-12-03T13:13:12.779Z,1279
2022-12-03T13:14:13.579Z,1230
2022-12-03T13:15:13.348Z,1150
2022-12-03T13:16:13.343Z,1080
2022-12-03T13:17:13.267Z,1040
2022-12-03T13:18:13.267Z,1035.
2022-12-03T13:19:13.353Z,1026
2022-12-03T13:20:13.375Z,980
2022-12-03T13:21:13.593Z,930
2022-12-03T13:22:13.380Z,897
2022-12-03T13:23:13.399Z,891.7
2022-12-03T13:24:13.553Z,907
2022-12-03T13:25:23.560Z,930
2022-12-03T13:26:30.482Z,954.9
2022-12-03T13:27:13.699Z,944
2022-12-03T13:28:13.542Z,949
2022-12-03T13:29:13.280Z,970
2022-12-03T13:30:17.701Z,990
2022-12-03T13:31:13.253Z,1030
2022-12-03T13:32:18.074Z,1090
2022-12-03T13:33:13.170Z,1139
2022-12-03T13:34:18.146Z,1132
2022-12-03T13:35:13.752Z,1120.
2022-12-03T13:36:18.588Z,1122.
2022-12-03T13:37:13.406Z,1114.
2022-12-03T13:38:18.095Z,1099
2022-12-03T13:39:13.684Z,1050
2022-12-03T13:40:18.815Z,990
2022-12-03T13:41:13.645Z,972.7
2022-12-03T13:42:18.475Z,981
2022-12-03T13:43:12.862Z,993
2022-12-03T13:44:18.532Z,1009
2022-12-03T13:45:13.819Z,1030
2022-12-03T13:46:20.990Z,1040.
2022-12-03T13:47:13.699Z,1031
2022-12-03T13:48:21.984Z,990
2022-12-03T13:49:13.600Z,920
2022-12-03T13:50:21.543Z,860
2022-12-03T13:51:12.725Z,828
2022-12-03T13:52:27.559Z,807
2022-12-03T13:53:12.591Z,795
2022-12-03T13:54:16.025Z,781
2022-12-03T13:55:12.919Z,771
2022-12-03T13:56:27.634Z,757
2022-12-03T13:57:12.975Z,737
2022-12-03T13:58:27.292Z,738
2022-12-03T13:59:13.482Z,759
2022-12-03T14:00:27.933Z,764.7
2022-12-03T14:01:13.812Z,780
2022-12-03T14:02:13.011Z,820
2022-12-03T14:03:13.697Z,838
2022-12-03T14:04:27.580Z,790
2022-12-03T14:05:12.825Z,720
2022-12-03T14:06:13.604Z,670
2022-12-03T14:07:13.552Z,630
2022-12-03T14:08:13.763Z,580
2022-12-03T14:09:13.447Z,540
2022-12-03T14:10:32.893Z,510